sensor_id;sensor_type;location;lat;lon;timestamp;pressure;altitude;pressure_sealevel;temperature;humidity
83492;BME280;73661;56.120;12.302;2023-11-21T00:01:41;101400.00;;;5.71;72.08
83492;BME280;73661;56.120;12.302;2023-11-21T00:04:07;101400.06;;;5.72;71.58
83492;BME280;73661;56.120;12.302;2023-11-21T00:06:33;101393.13;;;5.71;71.54
83492;BME280;73661;56.120;12.302;2023-11-21T00:08:59;101389.13;;;5.57;71.77
83492;BME280;73661;56.120;12.302;2023-11-21T00:11:25;101394.81;;;5.71;71.24
83492;BME280;73661;56.120;12.302;2023-11-21T00:13:51;101392.06;;;5.66;71.71
83492;BME280;73661;56.120;12.302;2023-11-21T00:16:18;101399.44;;;5.80;71.23
83492;BME280;73661;56.120;12.302;2023-11-21T00:18:44;101399.22;;;5.73;71.66
83492;BME280;73661;56.120;12.302;2023-11-21T00:21:12;101394.81;;;5.93;70.86
83492;BME280;73661;56.120;12.302;2023-11-21T00:23:38;101400.97;;;5.74;71.14
83492;BME280;73661;56.120;12.302;2023-11-21T00:26:03;101404.47;;;5.75;70.87
83492;BME280;73661;56.120;12.302;2023-11-21T00:28:29;101409.25;;;5.64;71.20
83492;BME280;73661;56.120;12.302;2023-11-21T00:30:55;101402.31;;;5.63;71.66
83492;BME280;73661;56.120;12.302;2023-11-21T00:33:21;101418.81;;;5.89;70.60
83492;BME280;73661;56.120;12.302;2023-11-21T00:35:46;101412.06;;;5.70;69.90
83492;BME280;73661;56.120;12.302;2023-11-21T00:38:12;101419.44;;;5.37;71.98
83492;BME280;73661;56.120;12.302;2023-11-21T00:40:38;101426.00;;;5.50;71.42
83492;BME280;73661;56.120;12.302;2023-11-21T00:43:03;101425.34;;;5.56;70.24
83492;BME280;73661;56.120;12.302;2023-11-21T00:45:29;101432.03;;;5.51;71.41
83492;BME280;73661;56.120;12.302;2023-11-21T00:47:56;101426.75;;;6.16;69.42
83492;BME280;73661;56.120;12.302;2023-11-21T00:50:23;101438.19;;;5.99;69.34
83492;BME280;73661;56.120;12.302;2023-11-21T00:52:49;101440.63;;;5.72;70.68
83492;BME280;73661;56.120;12.302;2023-11-21T00:55:17;101447.41;;;5.68;71.20
83492;BME280;73661;56.120;12.302;2023-11-21T00:57:43;101441.50;;;5.72;71.09
83492;BME280;73661;56.120;12.302;2023-11-21T01:00:09;101446.72;;;5.74;70.09
83492;BME280;73661;56.120;12.302;2023-11-21T01:02:39;101448.94;;;5.63;70.81
83492;BME280;73661;56.120;12.302;2023-11-21T01:05:05;101453.16;;;5.39;70.08
83492;BME280;73661;56.120;12.302;2023-11-21T01:07:33;101462.56;;;5.59;70.15
83492;BME280;73661;56.120;12.302;2023-11-21T01:09:59;101462.81;;;5.65;69.84
83492;BME280;73661;56.120;12.302;2023-11-21T01:12:24;101467.31;;;5.26;71.52
83492;BME280;73661;56.120;12.302;2023-11-21T01:14:50;101466.19;;;5.63;70.55
83492;BME280;73661;56.120;12.302;2023-11-21T01:17:16;101468.78;;;5.19;70.81
83492;BME280;73661;56.120;12.302;2023-11-21T01:19:43;101471.38;;;5.19;70.71
83492;BME280;73661;56.120;12.302;2023-11-21T01:22:09;101479.72;;;5.12;70.46
83492;BME280;73661;56.120;12.302;2023-11-21T01:24:37;101487.16;;;5.26;70.47
83492;BME280;73661;56.120;12.302;2023-11-21T01:27:03;101481.13;;;5.70;69.10
83492;BME280;73661;56.120;12.302;2023-11-21T01:29:29;101484.81;;;5.32;69.91
83492;BME280;73661;56.120;12.302;2023-11-21T01:31:55;101490.34;;;5.41;70.06
83492;BME280;73661;56.120;12.302;2023-11-21T01:34:23;101495.34;;;5.36;69.89
83492;BME280;73661;56.120;12.302;2023-11-21T01:36:48;101491.44;;;5.25;70.75
83492;BME280;73661;56.120;12.302;2023-11-21T01:39:15;101500.25;;;5.51;69.69
83492;BME280;73661;56.120;12.302;2023-11-21T01:41:42;101504.50;;;5.49;69.86
83492;BME280;73661;56.120;12.302;2023-11-21T01:44:09;101509.75;;;5.30;70.67
83492;BME280;73661;56.120;12.302;2023-11-21T01:46:36;101517.53;;;5.30;70.03
83492;BME280;73661;56.120;12.302;2023-11-21T01:49:03;101520.75;;;5.90;68.69
83492;BME280;73661;56.120;12.302;2023-11-21T01:51:29;101524.63;;;5.56;69.47
83492;BME280;73661;56.120;12.302;2023-11-21T01:53:56;101526.78;;;5.25;71.19
83492;BME280;73661;56.120;12.302;2023-11-21T01:56:23;101523.31;;;5.24;70.50
83492;BME280;73661;56.120;12.302;2023-11-21T01:58:49;101536.84;;;4.96;71.86
83492;BME280;73661;56.120;12.302;2023-11-21T02:01:14;101535.81;;;5.13;71.12
83492;BME280;73661;56.120;12.302;2023-11-21T02:03:40;101543.81;;;4.99;71.21
83492;BME280;73661;56.120;12.302;2023-11-21T02:06:06;101527.47;;;5.41;69.99
83492;BME280;73661;56.120;12.302;2023-11-21T02:08:31;101532.91;;;5.27;71.36
83492;BME280;73661;56.120;12.302;2023-11-21T02:10:57;101533.97;;;5.53;70.59
83492;BME280;73661;56.120;12.302;2023-11-21T02:13:23;101540.81;;;5.30;70.22
83492;BME280;73661;56.120;12.302;2023-11-21T02:15:48;101549.75;;;4.96;71.74
83492;BME280;73661;56.120;12.302;2023-11-21T02:18:18;101549.34;;;4.87;71.85
83492;BME280;73661;56.120;12.302;2023-11-21T02:20:43;101544.81;;;5.22;70.83
83492;BME280;73661;56.120;12.302;2023-11-21T02:23:09;101554.44;;;5.05;71.24
83492;BME280;73661;56.120;12.302;2023-11-21T02:25:35;101544.06;;;5.46;70.02
83492;BME280;73661;56.120;12.302;2023-11-21T02:28:03;101548.97;;;5.61;68.95
83492;BME280;73661;56.120;12.302;2023-11-21T02:30:29;101556.59;;;5.57;68.93
83492;BME280;73661;56.120;12.302;2023-11-21T02:32:58;101549.25;;;5.26;70.92
83492;BME280;73661;56.120;12.302;2023-11-21T02:35:24;101546.72;;;5.06;71.19
83492;BME280;73661;56.120;12.302;2023-11-21T02:37:53;101549.88;;;5.41;70.02
83492;BME280;73661;56.120;12.302;2023-11-21T02:40:20;101545.84;;;5.47;69.67
83492;BME280;73661;56.120;12.302;2023-11-21T02:42:50;101557.94;;;4.86;71.60
83492;BME280;73661;56.120;12.302;2023-11-21T02:45:18;101557.41;;;4.74;71.85
83492;BME280;73661;56.120;12.302;2023-11-21T02:47:44;101555.06;;;5.20;70.98
83492;BME280;73661;56.120;12.302;2023-11-21T02:50:10;101557.84;;;5.25;70.19
83492;BME280;73661;56.120;12.302;2023-11-21T02:52:37;101568.25;;;5.05;71.58
83492;BME280;73661;56.120;12.302;2023-11-21T02:55:03;101567.41;;;4.85;72.40
83492;BME280;73661;56.120;12.302;2023-11-21T02:57:29;101568.56;;;4.73;72.90
83492;BME280;73661;56.120;12.302;2023-11-21T02:59:55;101570.19;;;4.90;72.03
83492;BME280;73661;56.120;12.302;2023-11-21T03:02:22;101580.88;;;4.78;72.01
83492;BME280;73661;56.120;12.302;2023-11-21T03:04:48;101578.09;;;4.74;71.94
83492;BME280;73661;56.120;12.302;2023-11-21T03:07:15;101577.63;;;4.63;72.84
83492;BME280;73661;56.120;12.302;2023-11-21T03:09:41;101579.53;;;4.67;72.50
83492;BME280;73661;56.120;12.302;2023-11-21T03:12:09;101581.22;;;4.47;72.97
83492;BME280;73661;56.120;12.302;2023-11-21T03:14:35;101578.63;;;4.86;72.57
83492;BME280;73661;56.120;12.302;2023-11-21T03:17:01;101591.16;;;4.96;72.28
83492;BME280;73661;56.120;12.302;2023-11-21T03:19:27;101591.84;;;4.73;72.86
83492;BME280;73661;56.120;12.302;2023-11-21T03:21:52;101599.31;;;4.86;72.01
83492;BME280;73661;56.120;12.302;2023-11-21T03:24:18;101606.97;;;4.63;71.94
83492;BME280;73661;56.120;12.302;2023-11-21T03:26:46;101608.81;;;5.06;71.56
83492;BME280;73661;56.120;12.302;2023-11-21T03:29:12;101612.75;;;4.97;71.35
83492;BME280;73661;56.120;12.302;2023-11-21T03:31:38;101610.50;;;4.85;72.15
83492;BME280;73661;56.120;12.302;2023-11-21T03:34:04;101617.41;;;5.05;71.55
83492;BME280;73661;56.120;12.302;2023-11-21T03:36:30;101624.78;;;4.96;71.99
83492;BME280;73661;56.120;12.302;2023-11-21T03:38:56;101626.28;;;4.52;72.85
83492;BME280;73661;56.120;12.302;2023-11-21T03:41:21;101635.59;;;5.07;71.24
83492;BME280;73661;56.120;12.302;2023-11-21T03:43:47;101633.09;;;4.70;71.96
83492;BME280;73661;56.120;12.302;2023-11-21T03:46:12;101639.19;;;4.52;73.76
83492;BME280;73661;56.120;12.302;2023-11-21T03:48:39;101645.13;;;4.50;72.54
83492;BME280;73661;56.120;12.302;2023-11-21T03:51:05;101641.81;;;4.72;73.33
83492;BME280;73661;56.120;12.302;2023-11-21T03:53:31;101648.84;;;4.37;73.15
83492;BME280;73661;56.120;12.302;2023-11-21T03:55:57;101647.78;;;4.51;73.80
83492;BME280;73661;56.120;12.302;2023-11-21T03:58:23;101659.22;;;4.56;73.36
83492;BME280;73661;56.120;12.302;2023-11-21T04:00:49;101659.38;;;4.79;72.76
83492;BME280;73661;56.120;12.302;2023-11-21T04:03:17;101657.22;;;4.51;73.42
83492;BME280;73661;56.120;12.302;2023-11-21T04:05:46;101653.03;;;4.72;72.86
83492;BME280;73661;56.120;12.302;2023-11-21T04:08:15;101662.69;;;4.57;73.24
83492;BME280;73661;56.120;12.302;2023-11-21T04:10:45;101666.25;;;4.41;73.75
83492;BME280;73661;56.120;12.302;2023-11-21T04:13:14;101676.22;;;4.51;73.21
83492;BME280;73661;56.120;12.302;2023-11-21T04:15:43;101679.47;;;4.47;73.53
83492;BME280;73661;56.120;12.302;2023-11-21T04:18:09;101684.78;;;4.50;72.98
83492;BME280;73661;56.120;12.302;2023-11-21T04:20:35;101681.25;;;4.48;73.38
83492;BME280;73661;56.120;12.302;2023-11-21T04:23:01;101683.97;;;4.51;73.26
83492;BME280;73661;56.120;12.302;2023-11-21T04:25:27;101694.88;;;4.63;73.41
83492;BME280;73661;56.120;12.302;2023-11-21T04:27:54;101689.44;;;4.40;73.37
83492;BME280;73661;56.120;12.302;2023-11-21T04:30:20;101696.38;;;4.58;73.01
83492;BME280;73661;56.120;12.302;2023-11-21T04:32:46;101697.25;;;4.41;73.56
83492;BME280;73661;56.120;12.302;2023-11-21T04:35:12;101699.09;;;4.61;73.98
83492;BME280;73661;56.120;12.302;2023-11-21T04:37:37;101692.72;;;5.11;72.54
83492;BME280;73661;56.120;12.302;2023-11-21T04:40:03;101705.03;;;4.78;72.29
83492;BME280;73661;56.120;12.302;2023-11-21T04:42:35;101696.25;;;4.94;72.03
83492;BME280;73661;56.120;12.302;2023-11-21T04:45:01;101707.38;;;4.91;71.98
83492;BME280;73661;56.120;12.302;2023-11-21T04:47:30;101710.09;;;5.54;70.12
83492;BME280;73661;56.120;12.302;2023-11-21T04:49:56;101709.94;;;4.72;72.14
83492;BME280;73661;56.120;12.302;2023-11-21T04:52:21;101716.69;;;5.27;70.51
83492;BME280;73661;56.120;12.302;2023-11-21T04:54:47;101712.94;;;5.01;71.50
83492;BME280;73661;56.120;12.302;2023-11-21T04:57:13;101720.91;;;5.05;71.99
83492;BME280;73661;56.120;12.302;2023-11-21T04:59:39;101731.03;;;4.81;71.50
83492;BME280;73661;56.120;12.302;2023-11-21T05:02:05;101731.81;;;4.98;70.62
83492;BME280;73661;56.120;12.302;2023-11-21T05:04:30;101736.59;;;5.08;71.77
83492;BME280;73661;56.120;12.302;2023-11-21T05:06:56;101746.38;;;5.35;70.75
83492;BME280;73661;56.120;12.302;2023-11-21T05:09:22;101744.22;;;5.25;70.97
83492;BME280;73661;56.120;12.302;2023-11-21T05:11:47;101753.03;;;4.91;72.51
83492;BME280;73661;56.120;12.302;2023-11-21T05:14:13;101747.78;;;4.70;72.84
83492;BME280;73661;56.120;12.302;2023-11-21T05:16:39;101747.78;;;4.70;72.21
83492;BME280;73661;56.120;12.302;2023-11-21T05:19:05;101745.19;;;4.70;72.85
83492;BME280;73661;56.120;12.302;2023-11-21T05:21:31;101752.00;;;4.50;73.79
83492;BME280;73661;56.120;12.302;2023-11-21T05:23:58;101747.19;;;4.58;73.11
83492;BME280;73661;56.120;12.302;2023-11-21T05:26:24;101750.84;;;4.81;72.24
83492;BME280;73661;56.120;12.302;2023-11-21T05:28:49;101761.91;;;4.96;71.53
83492;BME280;73661;56.120;12.302;2023-11-21T05:31:15;101767.56;;;4.70;71.54
83492;BME280;73661;56.120;12.302;2023-11-21T05:33:41;101772.63;;;4.86;71.85
83492;BME280;73661;56.120;12.302;2023-11-21T05:36:07;101776.09;;;4.49;72.67
83492;BME280;73661;56.120;12.302;2023-11-21T05:38:36;101781.44;;;4.72;72.37
83492;BME280;73661;56.120;12.302;2023-11-21T05:41:02;101778.78;;;5.07;70.95
83492;BME280;73661;56.120;12.302;2023-11-21T05:43:29;101788.97;;;5.22;70.04
83492;BME280;73661;56.120;12.302;2023-11-21T05:45:56;101789.56;;;4.79;71.44
83492;BME280;73661;56.120;12.302;2023-11-21T05:48:22;101792.41;;;5.03;71.28
83492;BME280;73661;56.120;12.302;2023-11-21T05:50:49;101794.38;;;4.72;71.90
83492;BME280;73661;56.120;12.302;2023-11-21T05:53:15;101790.38;;;4.78;71.73
83492;BME280;73661;56.120;12.302;2023-11-21T05:55:42;101799.25;;;4.83;71.13
83492;BME280;73661;56.120;12.302;2023-11-21T05:58:08;101800.19;;;5.03;70.73
83492;BME280;73661;56.120;12.302;2023-11-21T06:00:34;101806.59;;;4.56;72.63
83492;BME280;73661;56.120;12.302;2023-11-21T06:03:03;101804.13;;;4.77;71.55
83492;BME280;73661;56.120;12.302;2023-11-21T06:05:29;101808.91;;;4.87;71.11
83492;BME280;73661;56.120;12.302;2023-11-21T06:07:57;101805.47;;;4.51;72.17
83492;BME280;73661;56.120;12.302;2023-11-21T06:10:24;101807.31;;;4.54;72.55
83492;BME280;73661;56.120;12.302;2023-11-21T06:12:50;101814.34;;;4.38;73.26
83492;BME280;73661;56.120;12.302;2023-11-21T06:15:16;101814.41;;;4.40;73.12
83492;BME280;73661;56.120;12.302;2023-11-21T06:17:44;101817.44;;;4.31;74.04
83492;BME280;73661;56.120;12.302;2023-11-21T06:20:15;101821.06;;;4.35;73.03
83492;BME280;73661;56.120;12.302;2023-11-21T06:22:42;101827.13;;;4.35;73.41
83492;BME280;73661;56.120;12.302;2023-11-21T06:25:09;101825.47;;;4.73;71.61
83492;BME280;73661;56.120;12.302;2023-11-21T06:27:39;101830.81;;;4.76;72.05
83492;BME280;73661;56.120;12.302;2023-11-21T06:30:06;101831.88;;;4.62;72.29
83492;BME280;73661;56.120;12.302;2023-11-21T06:32:34;101833.59;;;4.99;71.42
83492;BME280;73661;56.120;12.302;2023-11-21T06:35:02;101846.19;;;4.91;71.32
83492;BME280;73661;56.120;12.302;2023-11-21T06:37:30;101848.41;;;4.65;72.36
83492;BME280;73661;56.120;12.302;2023-11-21T06:39:57;101852.69;;;4.65;71.67
83492;BME280;73661;56.120;12.302;2023-11-21T06:42:24;101857.69;;;4.80;70.99
83492;BME280;73661;56.120;12.302;2023-11-21T06:44:51;101858.81;;;5.03;70.25
83492;BME280;73661;56.120;12.302;2023-11-21T06:47:23;101859.03;;;5.27;70.10
83492;BME280;73661;56.120;12.302;2023-11-21T06:49:55;101864.81;;;4.84;71.11
83492;BME280;73661;56.120;12.302;2023-11-21T06:52:20;101871.00;;;5.05;70.85
83492;BME280;73661;56.120;12.302;2023-11-21T06:54:47;101881.63;;;4.93;71.67
83492;BME280;73661;56.120;12.302;2023-11-21T06:57:14;101883.88;;;4.86;72.30
83492;BME280;73661;56.120;12.302;2023-11-21T06:59:40;101873.22;;;5.15;70.32
83492;BME280;73661;56.120;12.302;2023-11-21T07:02:06;101882.75;;;5.16;70.17
83492;BME280;73661;56.120;12.302;2023-11-21T07:04:33;101885.91;;;5.29;71.15
83492;BME280;73661;56.120;12.302;2023-11-21T07:06:58;101890.56;;;5.36;70.43
83492;BME280;73661;56.120;12.302;2023-11-21T07:09:24;101893.97;;;5.54;69.87
83492;BME280;73661;56.120;12.302;2023-11-21T07:11:52;101894.44;;;5.45;70.14
83492;BME280;73661;56.120;12.302;2023-11-21T07:14:17;101909.75;;;5.22;71.09
83492;BME280;73661;56.120;12.302;2023-11-21T07:16:45;101910.84;;;4.91;72.05
83492;BME280;73661;56.120;12.302;2023-11-21T07:19:11;101915.63;;;4.65;72.05
83492;BME280;73661;56.120;12.302;2023-11-21T07:21:38;101913.88;;;5.00;71.82
83492;BME280;73661;56.120;12.302;2023-11-21T07:24:05;101924.25;;;4.82;71.80
83492;BME280;73661;56.120;12.302;2023-11-21T07:26:33;101926.59;;;4.78;71.44
83492;BME280;73661;56.120;12.302;2023-11-21T07:29:00;101921.34;;;4.76;71.40
83492;BME280;73661;56.120;12.302;2023-11-21T07:31:26;101933.09;;;4.87;70.94
83492;BME280;73661;56.120;12.302;2023-11-21T07:33:52;101937.53;;;4.90;70.75
83492;BME280;73661;56.120;12.302;2023-11-21T07:36:20;101933.84;;;4.85;72.14
83492;BME280;73661;56.120;12.302;2023-11-21T07:38:48;101949.81;;;5.12;71.36
83492;BME280;73661;56.120;12.302;2023-11-21T07:41:14;101950.69;;;4.77;70.89
83492;BME280;73661;56.120;12.302;2023-11-21T07:43:44;101949.50;;;4.88;70.61
83492;BME280;73661;56.120;12.302;2023-11-21T07:46:11;101951.94;;;4.85;71.68
83492;BME280;73661;56.120;12.302;2023-11-21T07:48:41;101961.72;;;4.90;70.67
83492;BME280;73661;56.120;12.302;2023-11-21T07:51:08;101956.44;;;4.71;70.98
83492;BME280;73661;56.120;12.302;2023-11-21T07:53:35;101966.03;;;4.74;70.61
83492;BME280;73661;56.120;12.302;2023-11-21T07:56:06;101964.47;;;4.59;69.81
83492;BME280;73661;56.120;12.302;2023-11-21T07:58:34;101978.31;;;4.78;70.08
83492;BME280;73661;56.120;12.302;2023-11-21T08:01:00;101978.63;;;4.84;69.57
83492;BME280;73661;56.120;12.302;2023-11-21T08:03:26;101979.63;;;4.70;70.32
83492;BME280;73661;56.120;12.302;2023-11-21T08:05:52;101997.25;;;4.77;69.37
83492;BME280;73661;56.120;12.302;2023-11-21T08:08:18;101996.13;;;4.72;69.26
83492;BME280;73661;56.120;12.302;2023-11-21T08:10:44;102003.91;;;4.89;69.59
83492;BME280;73661;56.120;12.302;2023-11-21T08:13:14;102009.00;;;4.88;69.31
83492;BME280;73661;56.120;12.302;2023-11-21T08:15:42;102009.59;;;5.00;69.02
83492;BME280;73661;56.120;12.302;2023-11-21T08:18:12;102011.09;;;4.95;68.46
83492;BME280;73661;56.120;12.302;2023-11-21T08:20:40;102028.78;;;5.04;67.99
83492;BME280;73661;56.120;12.302;2023-11-21T08:23:06;102029.88;;;4.75;68.28
83492;BME280;73661;56.120;12.302;2023-11-21T08:25:32;102028.28;;;4.95;69.05
83492;BME280;73661;56.120;12.302;2023-11-21T08:28:00;102033.19;;;5.06;68.47
83492;BME280;73661;56.120;12.302;2023-11-21T08:30:27;102035.97;;;4.75;69.67
83492;BME280;73661;56.120;12.302;2023-11-21T08:32:55;102037.00;;;4.79;68.80
83492;BME280;73661;56.120;12.302;2023-11-21T08:35:24;102039.06;;;4.86;69.56
83492;BME280;73661;56.120;12.302;2023-11-21T08:37:53;102032.91;;;5.00;67.91
83492;BME280;73661;56.120;12.302;2023-11-21T08:40:19;102038.75;;;5.14;68.20
83492;BME280;73661;56.120;12.302;2023-11-21T08:42:46;102038.19;;;5.19;68.11
83492;BME280;73661;56.120;12.302;2023-11-21T08:45:14;102041.50;;;5.17;68.53
83492;BME280;73661;56.120;12.302;2023-11-21T08:47:40;102046.25;;;5.26;67.70
83492;BME280;73661;56.120;12.302;2023-11-21T08:50:06;102055.97;;;5.13;67.50
83492;BME280;73661;56.120;12.302;2023-11-21T08:52:34;102051.81;;;4.65;68.94
83492;BME280;73661;56.120;12.302;2023-11-21T08:54:59;102068.84;;;5.12;67.88
83492;BME280;73661;56.120;12.302;2023-11-21T08:57:28;102071.56;;;4.97;67.88
83492;BME280;73661;56.120;12.302;2023-11-21T08:59:55;102074.34;;;4.68;68.35
83492;BME280;73661;56.120;12.302;2023-11-21T09:02:26;102076.03;;;4.83;68.19
83492;BME280;73661;56.120;12.302;2023-11-21T09:04:52;102080.16;;;5.14;68.08
83492;BME280;73661;56.120;12.302;2023-11-21T09:07:21;102087.31;;;5.36;67.05
83492;BME280;73661;56.120;12.302;2023-11-21T09:09:47;102089.38;;;4.91;68.03
83492;BME280;73661;56.120;12.302;2023-11-21T09:12:14;102090.69;;;4.83;67.03
83492;BME280;73661;56.120;12.302;2023-11-21T09:14:40;102088.09;;;4.67;68.38
83492;BME280;73661;56.120;12.302;2023-11-21T09:17:06;102101.84;;;4.82;67.47
83492;BME280;73661;56.120;12.302;2023-11-21T09:19:40;102099.41;;;4.85;66.27
83492;BME280;73661;56.120;12.302;2023-11-21T09:22:07;102098.44;;;4.83;67.08
83492;BME280;73661;56.120;12.302;2023-11-21T09:24:33;102103.00;;;5.05;67.81
83492;BME280;73661;56.120;12.302;2023-11-21T09:27:00;102097.31;;;4.78;67.81
83492;BME280;73661;56.120;12.302;2023-11-21T09:29:28;102100.34;;;5.03;67.60
83492;BME280;73661;56.120;12.302;2023-11-21T09:31:55;102102.22;;;4.89;66.56
83492;BME280;73661;56.120;12.302;2023-11-21T09:34:21;102110.00;;;5.41;66.22
83492;BME280;73661;56.120;12.302;2023-11-21T09:36:47;102115.06;;;5.04;66.64
83492;BME280;73661;56.120;12.302;2023-11-21T09:39:33;102114.41;;;4.92;67.61
83492;BME280;73661;56.120;12.302;2023-11-21T09:42:21;102122.19;;;4.92;66.41
83492;BME280;73661;56.120;12.302;2023-11-21T09:45:03;102123.38;;;5.15;65.77
83492;BME280;73661;56.120;12.302;2023-11-21T09:47:35;102112.97;;;4.97;65.84
83492;BME280;73661;56.120;12.302;2023-11-21T09:50:05;102133.00;;;5.17;66.27
83492;BME280;73661;56.120;12.302;2023-11-21T09:55:37;102135.47;;;4.82;63.89
83492;BME280;73661;56.120;12.302;2023-11-21T09:58:06;102132.03;;;5.15;65.12
83492;BME280;73661;56.120;12.302;2023-11-21T10:00:44;102140.91;;;5.20;64.62
83492;BME280;73661;56.120;12.302;2023-11-21T10:03:12;102139.19;;;4.71;66.09
83492;BME280;73661;56.120;12.302;2023-11-21T10:05:39;102134.72;;;4.84;63.82
83492;BME280;73661;56.120;12.302;2023-11-21T10:08:10;102155.34;;;4.83;64.96
83492;BME280;73661;56.120;12.302;2023-11-21T10:10:37;102157.72;;;4.47;64.69
83492;BME280;73661;56.120;12.302;2023-11-21T10:13:05;102153.41;;;4.79;64.53
83492;BME280;73661;56.120;12.302;2023-11-21T10:15:36;102149.84;;;4.77;62.66
83492;BME280;73661;56.120;12.302;2023-11-21T10:18:07;102157.09;;;4.68;62.99
83492;BME280;73661;56.120;12.302;2023-11-21T10:20:33;102156.31;;;4.85;62.09
83492;BME280;73661;56.120;12.302;2023-11-21T10:23:00;102161.72;;;4.73;62.83
83492;BME280;73661;56.120;12.302;2023-11-21T10:25:32;102160.69;;;4.70;62.72
83492;BME280;73661;56.120;12.302;2023-11-21T10:27:59;102167.47;;;4.84;63.38
83492;BME280;73661;56.120;12.302;2023-11-21T10:30:39;102156.44;;;5.20;62.60
83492;BME280;73661;56.120;12.302;2023-11-21T10:33:06;102173.28;;;4.80;61.97
83492;BME280;73661;56.120;12.302;2023-11-21T10:35:47;102164.88;;;4.84;60.89
83492;BME280;73661;56.120;12.302;2023-11-21T10:38:19;102166.19;;;5.08;59.94
83492;BME280;73661;56.120;12.302;2023-11-21T10:40:46;102173.16;;;5.27;59.57
83492;BME280;73661;56.120;12.302;2023-11-21T10:43:13;102181.44;;;5.04;59.82
83492;BME280;73661;56.120;12.302;2023-11-21T10:45:43;102176.31;;;5.38;61.33
83492;BME280;73661;56.120;12.302;2023-11-21T10:48:10;102180.91;;;5.78;60.64
83492;BME280;73661;56.120;12.302;2023-11-21T10:50:37;102185.41;;;5.64;59.22
83492;BME280;73661;56.120;12.302;2023-11-21T10:53:04;102174.38;;;5.86;61.33
83492;BME280;73661;56.120;12.302;2023-11-21T10:55:32;102183.69;;;5.64;58.92
83492;BME280;73661;56.120;12.302;2023-11-21T10:58:02;102187.47;;;5.71;58.24
83492;BME280;73661;56.120;12.302;2023-11-21T11:00:31;102189.50;;;5.94;58.92
83492;BME280;73661;56.120;12.302;2023-11-21T11:02:57;102193.97;;;5.81;59.77
83492;BME280;73661;56.120;12.302;2023-11-21T11:05:27;102202.63;;;5.29;60.10
83492;BME280;73661;56.120;12.302;2023-11-21T11:08:08;102196.53;;;5.45;59.65
83492;BME280;73661;56.120;12.302;2023-11-21T11:10:37;102201.19;;;5.52;59.46
83492;BME280;73661;56.120;12.302;2023-11-21T11:13:04;102201.44;;;5.57;58.75
83492;BME280;73661;56.120;12.302;2023-11-21T11:15:32;102200.66;;;5.76;57.85
83492;BME280;73661;56.120;12.302;2023-11-21T11:17:59;102203.41;;;5.44;59.16
83492;BME280;73661;56.120;12.302;2023-11-21T11:20:33;102198.69;;;5.54;57.69
83492;BME280;73661;56.120;12.302;2023-11-21T11:34:31;102214.88;;;5.84;55.10
83492;BME280;73661;56.120;12.302;2023-11-21T11:37:11;102219.66;;;6.28;55.58
83492;BME280;73661;56.120;12.302;2023-11-21T11:39:40;102219.47;;;5.89;56.57
83492;BME280;73661;56.120;12.302;2023-11-21T11:42:15;102229.75;;;5.88;56.70
83492;BME280;73661;56.120;12.302;2023-11-21T11:47:28;102230.63;;;5.88;55.19
83492;BME280;73661;56.120;12.302;2023-11-21T11:55:15;102225.31;;;5.51;57.26
83492;BME280;73661;56.120;12.302;2023-11-21T11:57:49;102234.41;;;5.77;56.71
83492;BME280;73661;56.120;12.302;2023-11-21T12:00:33;102237.13;;;6.14;57.82
83492;BME280;73661;56.120;12.302;2023-11-21T12:03:04;102237.38;;;5.51;55.88
83492;BME280;73661;56.120;12.302;2023-11-21T12:05:34;102240.63;;;5.81;55.59
83492;BME280;73661;56.120;12.302;2023-11-21T12:08:05;102247.41;;;6.48;55.55
83492;BME280;73661;56.120;12.302;2023-11-21T12:10:34;102249.28;;;5.81;55.80
83492;BME280;73661;56.120;12.302;2023-11-21T12:13:06;102255.75;;;6.23;54.87
83492;BME280;73661;56.120;12.302;2023-11-21T12:15:36;102256.41;;;6.19;55.09
83492;BME280;73661;56.120;12.302;2023-11-21T12:18:03;102268.09;;;6.11;55.42
83492;BME280;73661;56.120;12.302;2023-11-21T12:20:29;102261.34;;;5.81;55.80
83492;BME280;73661;56.120;12.302;2023-11-21T12:22:58;102274.34;;;5.64;55.63
83492;BME280;73661;56.120;12.302;2023-11-21T12:25:27;102265.06;;;5.86;55.65
83492;BME280;73661;56.120;12.302;2023-11-21T12:27:58;102272.09;;;6.05;55.80
83492;BME280;73661;56.120;12.302;2023-11-21T12:30:30;102271.22;;;6.04;55.60
83492;BME280;73661;56.120;12.302;2023-11-21T12:33:02;102270.63;;;6.45;55.35
83492;BME280;73661;56.120;12.302;2023-11-21T12:35:30;102283.44;;;6.60;54.91
83492;BME280;73661;56.120;12.302;2023-11-21T12:37:56;102281.88;;;6.28;56.44
83492;BME280;73661;56.120;12.302;2023-11-21T12:40:26;102270.63;;;6.45;55.58
83492;BME280;73661;56.120;12.302;2023-11-21T12:42:55;102287.09;;;5.94;55.34
83492;BME280;73661;56.120;12.302;2023-11-21T12:45:23;102290.34;;;6.24;55.08
83492;BME280;73661;56.120;12.302;2023-11-21T12:47:58;102297.59;;;6.85;54.36
83492;BME280;73661;56.120;12.302;2023-11-21T12:50:27;102300.00;;;6.62;54.28
83492;BME280;73661;56.120;12.302;2023-11-21T12:53:02;102296.84;;;6.34;54.24
83492;BME280;73661;56.120;12.302;2023-11-21T12:55:31;102289.75;;;6.65;54.11
83492;BME280;73661;56.120;12.302;2023-11-21T12:57:57;102289.59;;;6.26;54.75
83492;BME280;73661;56.120;12.302;2023-11-21T13:00:33;102306.19;;;5.62;55.63
83492;BME280;73661;56.120;12.302;2023-11-21T13:03:03;102299.78;;;5.39;55.58
83492;BME280;73661;56.120;12.302;2023-11-21T13:05:37;102300.75;;;5.41;56.47
83492;BME280;73661;56.120;12.302;2023-11-21T13:08:23;102300.19;;;5.30;56.81
83492;BME280;73661;56.120;12.302;2023-11-21T13:10:54;102288.44;;;5.69;56.18
83492;BME280;73661;56.120;12.302;2023-11-21T13:13:21;102289.63;;;5.76;55.46
83492;BME280;73661;56.120;12.302;2023-11-21T13:15:51;102293.31;;;5.63;56.11